KSSC

Shaw AFB Airport

Sumter, South Carolina, USA
METAR KSSC 150056Z AUTO 19004KT 10SM CLR 27/22 A2999 RMK AO2 SLP155 T02690216 TSNO $
Observed Flight Rules
Aug-15 @ 00:56 UTC (10 minutes ago) Visual Flight Rules
Wind Visibility Clouds
190° at 4 knots 10 miles
  • Clear skies
Temperatures Readings
Current 27°C / 81°F
Dewpoint 22°C / 72°F
Humidity 74%
Altimeter 29.99" Hg
Pressure 1015.5 hPa
Elevation 74
METAR KSSC 150056Z AUTO 19004KT 10SM CLR 27/22 A2999 RMK AO2 SLP155 T02690216 TSNO $
Observed Flight Rules
Aug-15 @ 00:56 UTC
(10 minutes ago)
VFR
Wind Visibility
190° at 4 knots 10 miles
Clouds
  • Clear skies
Temperature Dewpoint
27°C / 81°F 22°C / 72°F
Humidity Altimeter Pressure
74% 29.99" Hg 1015.5 hPa